sensor_id;sensor_type;location;lat;lon;timestamp;P1;durP1;ratioP1;P2;durP2;ratioP2
42140;SDS011;27809;51.864;5.646;2022-10-17T00:00:14;6.75;;;2.88;;
42140;SDS011;27809;51.864;5.646;2022-10-17T00:02:40;8.57;;;3.65;;
42140;SDS011;27809;51.864;5.646;2022-10-17T00:05:05;7.78;;;2.88;;
42140;SDS011;27809;51.864;5.646;2022-10-17T00:07:31;5.63;;;3.17;;
42140;SDS011;27809;51.864;5.646;2022-10-17T00:09:56;8.15;;;3.92;;
42140;SDS011;27809;51.864;5.646;2022-10-17T00:12:22;4.63;;;3.45;;
42140;SDS011;27809;51.864;5.646;2022-10-17T00:14:47;8.60;;;3.90;;
42140;SDS011;27809;51.864;5.646;2022-10-17T00:17:13;7.18;;;3.15;;
42140;SDS011;27809;51.864;5.646;2022-10-17T00:19:39;6.35;;;2.88;;
42140;SDS011;27809;51.864;5.646;2022-10-17T00:22:05;8.23;;;4.25;;
42140;SDS011;27809;51.864;5.646;2022-10-17T00:24:30;6.65;;;3.75;;
42140;SDS011;27809;51.864;5.646;2022-10-17T00:26:56;5.45;;;3.90;;
42140;SDS011;27809;51.864;5.646;2022-10-17T00:29:21;9.50;;;3.95;;
42140;SDS011;27809;51.864;5.646;2022-10-17T00:31:47;8.52;;;4.18;;
42140;SDS011;27809;51.864;5.646;2022-10-17T00:34:12;27.02;;;5.05;;
42140;SDS011;27809;51.864;5.646;2022-10-17T00:36:38;7.45;;;4.93;;
42140;SDS011;27809;51.864;5.646;2022-10-17T00:39:03;6.05;;;3.63;;
42140;SDS011;27809;51.864;5.646;2022-10-17T00:41:30;11.88;;;4.65;;
42140;SDS011;27809;51.864;5.646;2022-10-17T00:44:01;13.25;;;5.50;;
42140;SDS011;27809;51.864;5.646;2022-10-17T00:46:35;10.13;;;4.20;;
42140;SDS011;27809;51.864;5.646;2022-10-17T00:49:04;6.50;;;4.57;;
42140;SDS011;27809;51.864;5.646;2022-10-17T00:51:45;8.25;;;4.75;;
42140;SDS011;27809;51.864;5.646;2022-10-17T00:54:17;6.40;;;3.90;;
42140;SDS011;27809;51.864;5.646;2022-10-17T00:56:45;7.97;;;4.75;;
42140;SDS011;27809;51.864;5.646;2022-10-17T00:59:12;6.43;;;4.45;;
42140;SDS011;27809;51.864;5.646;2022-10-17T01:01:40;7.05;;;4.55;;
42140;SDS011;27809;51.864;5.646;2022-10-17T01:04:11;7.22;;;4.70;;
42140;SDS011;27809;51.864;5.646;2022-10-17T01:06:37;6.18;;;4.40;;
42140;SDS011;27809;51.864;5.646;2022-10-17T01:09:02;7.80;;;5.00;;
42140;SDS011;27809;51.864;5.646;2022-10-17T01:11:38;7.03;;;4.40;;
42140;SDS011;27809;51.864;5.646;2022-10-17T01:14:26;6.72;;;4.45;;
42140;SDS011;27809;51.864;5.646;2022-10-17T01:17:27;8.57;;;4.15;;
42140;SDS011;27809;51.864;5.646;2022-10-17T01:22:46;11.20;;;5.03;;
42140;SDS011;27809;51.864;5.646;2022-10-17T01:28:04;8.45;;;4.68;;
42140;SDS011;27809;51.864;5.646;2022-10-17T01:33:13;7.10;;;4.32;;
42140;SDS011;27809;51.864;5.646;2022-10-17T01:36:04;7.90;;;5.07;;
42140;SDS011;27809;51.864;5.646;2022-10-17T01:38:47;8.73;;;5.00;;
42140;SDS011;27809;51.864;5.646;2022-10-17T01:41:19;9.10;;;5.22;;
42140;SDS011;27809;51.864;5.646;2022-10-17T01:43:55;9.55;;;4.78;;
42140;SDS011;27809;51.864;5.646;2022-10-17T01:46:26;9.85;;;4.07;;
42140;SDS011;27809;51.864;5.646;2022-10-17T01:48:56;9.35;;;5.00;;
42140;SDS011;27809;51.864;5.646;2022-10-17T01:51:28;6.80;;;4.70;;
42140;SDS011;27809;51.864;5.646;2022-10-17T01:53:59;32.90;;;5.00;;
42140;SDS011;27809;51.864;5.646;2022-10-17T01:56:47;6.28;;;4.07;;
42140;SDS011;27809;51.864;5.646;2022-10-17T01:59:21;9.63;;;3.70;;
42140;SDS011;27809;51.864;5.646;2022-10-17T02:01:50;7.07;;;5.00;;
42140;SDS011;27809;51.864;5.646;2022-10-17T02:04:17;6.20;;;4.63;;
42140;SDS011;27809;51.864;5.646;2022-10-17T02:06:44;10.73;;;5.43;;
42140;SDS011;27809;51.864;5.646;2022-10-17T02:09:16;8.13;;;4.88;;
42140;SDS011;27809;51.864;5.646;2022-10-17T02:14:43;9.65;;;5.55;;
42140;SDS011;27809;51.864;5.646;2022-10-17T02:25:28;11.07;;;4.60;;
42140;SDS011;27809;51.864;5.646;2022-10-17T02:28:14;10.25;;;4.82;;
42140;SDS011;27809;51.864;5.646;2022-10-17T02:30:50;6.93;;;4.07;;
42140;SDS011;27809;51.864;5.646;2022-10-17T02:33:22;9.20;;;5.03;;
42140;SDS011;27809;51.864;5.646;2022-10-17T02:36:00;7.43;;;4.63;;
42140;SDS011;27809;51.864;5.646;2022-10-17T02:38:30;8.43;;;5.20;;
42140;SDS011;27809;51.864;5.646;2022-10-17T02:40:57;17.48;;;5.50;;
42140;SDS011;27809;51.864;5.646;2022-10-17T02:43:23;11.50;;;5.90;;
42140;SDS011;27809;51.864;5.646;2022-10-17T02:45:49;11.68;;;6.18;;
42140;SDS011;27809;51.864;5.646;2022-10-17T02:50:56;9.68;;;4.63;;
42140;SDS011;27809;51.864;5.646;2022-10-17T02:53:31;14.05;;;5.85;;
42140;SDS011;27809;51.864;5.646;2022-10-17T02:56:03;11.50;;;5.28;;
42140;SDS011;27809;51.864;5.646;2022-10-17T02:58:32;8.30;;;5.13;;
42140;SDS011;27809;51.864;5.646;2022-10-17T03:01:00;7.40;;;5.15;;
42140;SDS011;27809;51.864;5.646;2022-10-17T03:03:29;7.28;;;4.45;;
42140;SDS011;27809;51.864;5.646;2022-10-17T03:05:56;7.25;;;5.03;;
42140;SDS011;27809;51.864;5.646;2022-10-17T03:08:22;11.13;;;5.28;;
42140;SDS011;27809;51.864;5.646;2022-10-17T03:10:48;14.90;;;5.82;;
42140;SDS011;27809;51.864;5.646;2022-10-17T03:13:14;6.15;;;4.22;;
42140;SDS011;27809;51.864;5.646;2022-10-17T03:15:40;9.90;;;5.57;;
42140;SDS011;27809;51.864;5.646;2022-10-17T03:18:06;11.30;;;6.47;;
42140;SDS011;27809;51.864;5.646;2022-10-17T03:20:32;10.13;;;4.95;;
42140;SDS011;27809;51.864;5.646;2022-10-17T03:22:58;18.45;;;5.82;;
42140;SDS011;27809;51.864;5.646;2022-10-17T03:25:24;10.35;;;4.82;;
42140;SDS011;27809;51.864;5.646;2022-10-17T03:27:50;7.88;;;4.90;;
42140;SDS011;27809;51.864;5.646;2022-10-17T03:30:16;7.72;;;5.85;;
42140;SDS011;27809;51.864;5.646;2022-10-17T03:32:41;7.80;;;5.47;;
42140;SDS011;27809;51.864;5.646;2022-10-17T03:35:07;7.70;;;5.88;;
42140;SDS011;27809;51.864;5.646;2022-10-17T03:37:33;10.95;;;5.80;;
42140;SDS011;27809;51.864;5.646;2022-10-17T03:39:58;8.30;;;4.18;;
42140;SDS011;27809;51.864;5.646;2022-10-17T03:42:23;12.48;;;5.60;;
42140;SDS011;27809;51.864;5.646;2022-10-17T03:44:49;7.82;;;5.45;;
42140;SDS011;27809;51.864;5.646;2022-10-17T03:47:14;11.52;;;4.95;;
42140;SDS011;27809;51.864;5.646;2022-10-17T03:49:40;9.02;;;5.38;;
42140;SDS011;27809;51.864;5.646;2022-10-17T03:52:09;8.48;;;4.78;;
42140;SDS011;27809;51.864;5.646;2022-10-17T03:54:36;13.15;;;5.10;;
42140;SDS011;27809;51.864;5.646;2022-10-17T03:57:01;10.70;;;5.10;;
42140;SDS011;27809;51.864;5.646;2022-10-17T03:59:27;14.00;;;6.38;;
42140;SDS011;27809;51.864;5.646;2022-10-17T04:01:52;12.20;;;5.63;;
42140;SDS011;27809;51.864;5.646;2022-10-17T04:04:18;15.82;;;5.63;;
42140;SDS011;27809;51.864;5.646;2022-10-17T04:06:43;13.32;;;5.22;;
42140;SDS011;27809;51.864;5.646;2022-10-17T04:09:09;11.85;;;5.07;;
42140;SDS011;27809;51.864;5.646;2022-10-17T04:11:35;20.23;;;5.20;;
42140;SDS011;27809;51.864;5.646;2022-10-17T04:14:00;12.73;;;5.82;;
42140;SDS011;27809;51.864;5.646;2022-10-17T04:16:26;10.40;;;4.55;;
42140;SDS011;27809;51.864;5.646;2022-10-17T04:18:52;10.27;;;5.20;;
42140;SDS011;27809;51.864;5.646;2022-10-17T04:21:19;15.57;;;5.45;;
42140;SDS011;27809;51.864;5.646;2022-10-17T04:23:45;9.57;;;4.95;;
42140;SDS011;27809;51.864;5.646;2022-10-17T04:26:10;6.55;;;4.30;;
42140;SDS011;27809;51.864;5.646;2022-10-17T04:28:36;9.05;;;4.38;;
42140;SDS011;27809;51.864;5.646;2022-10-17T04:31:03;14.90;;;5.72;;
42140;SDS011;27809;51.864;5.646;2022-10-17T04:33:33;12.48;;;5.40;;
42140;SDS011;27809;51.864;5.646;2022-10-17T04:36:00;10.27;;;4.82;;
42140;SDS011;27809;51.864;5.646;2022-10-17T04:38:28;10.18;;;4.25;;
42140;SDS011;27809;51.864;5.646;2022-10-17T04:40:57;8.65;;;4.75;;
42140;SDS011;27809;51.864;5.646;2022-10-17T04:43:27;9.75;;;4.53;;
42140;SDS011;27809;51.864;5.646;2022-10-17T04:45:52;13.20;;;6.53;;
42140;SDS011;27809;51.864;5.646;2022-10-17T04:48:18;12.00;;;5.45;;
42140;SDS011;27809;51.864;5.646;2022-10-17T04:50:57;6.85;;;4.90;;
42140;SDS011;27809;51.864;5.646;2022-10-17T04:53:24;12.82;;;4.97;;
42140;SDS011;27809;51.864;5.646;2022-10-17T04:55:51;9.68;;;5.93;;
42140;SDS011;27809;51.864;5.646;2022-10-17T04:58:17;8.85;;;5.45;;
42140;SDS011;27809;51.864;5.646;2022-10-17T05:00:43;11.70;;;4.97;;
42140;SDS011;27809;51.864;5.646;2022-10-17T05:03:09;8.00;;;4.68;;
42140;SDS011;27809;51.864;5.646;2022-10-17T05:05:38;10.18;;;4.50;;
42140;SDS011;27809;51.864;5.646;2022-10-17T05:08:05;9.85;;;3.33;;
42140;SDS011;27809;51.864;5.646;2022-10-17T05:10:39;9.50;;;4.85;;
42140;SDS011;27809;51.864;5.646;2022-10-17T05:13:07;7.60;;;4.30;;
42140;SDS011;27809;51.864;5.646;2022-10-17T05:15:33;13.95;;;3.80;;
42140;SDS011;27809;51.864;5.646;2022-10-17T05:17:59;8.82;;;4.10;;
42140;SDS011;27809;51.864;5.646;2022-10-17T05:20:25;9.27;;;4.97;;
42140;SDS011;27809;51.864;5.646;2022-10-17T05:22:50;11.93;;;5.88;;
42140;SDS011;27809;51.864;5.646;2022-10-17T05:25:16;15.68;;;4.57;;
42140;SDS011;27809;51.864;5.646;2022-10-17T05:27:41;8.63;;;4.97;;
42140;SDS011;27809;51.864;5.646;2022-10-17T05:30:07;15.25;;;4.72;;
42140;SDS011;27809;51.864;5.646;2022-10-17T05:32:33;8.38;;;4.80;;
42140;SDS011;27809;51.864;5.646;2022-10-17T05:34:58;7.47;;;4.53;;
42140;SDS011;27809;51.864;5.646;2022-10-17T05:37:24;7.00;;;5.72;;
42140;SDS011;27809;51.864;5.646;2022-10-17T05:39:49;11.13;;;3.88;;
42140;SDS011;27809;51.864;5.646;2022-10-17T05:42:15;8.70;;;4.07;;
42140;SDS011;27809;51.864;5.646;2022-10-17T05:44:40;9.13;;;2.72;;
42140;SDS011;27809;51.864;5.646;2022-10-17T05:47:09;7.75;;;4.35;;
42140;SDS011;27809;51.864;5.646;2022-10-17T05:49:34;7.55;;;4.22;;
42140;SDS011;27809;51.864;5.646;2022-10-17T05:52:00;12.60;;;4.22;;
42140;SDS011;27809;51.864;5.646;2022-10-17T05:54:25;6.03;;;3.83;;
42140;SDS011;27809;51.864;5.646;2022-10-17T05:56:52;21.60;;;6.28;;
42140;SDS011;27809;51.864;5.646;2022-10-17T05:59:18;7.85;;;4.95;;
42140;SDS011;27809;51.864;5.646;2022-10-17T06:01:44;8.68;;;4.65;;
42140;SDS011;27809;51.864;5.646;2022-10-17T06:04:10;11.98;;;4.60;;
42140;SDS011;27809;51.864;5.646;2022-10-17T06:06:36;12.95;;;6.20;;
42140;SDS011;27809;51.864;5.646;2022-10-17T06:09:02;11.63;;;5.88;;
42140;SDS011;27809;51.864;5.646;2022-10-17T06:11:28;10.70;;;5.15;;
42140;SDS011;27809;51.864;5.646;2022-10-17T06:13:54;9.20;;;5.68;;
42140;SDS011;27809;51.864;5.646;2022-10-17T06:16:19;44.35;;;6.57;;
42140;SDS011;27809;51.864;5.646;2022-10-17T06:18:45;8.88;;;5.43;;
42140;SDS011;27809;51.864;5.646;2022-10-17T06:21:11;19.27;;;5.45;;
42140;SDS011;27809;51.864;5.646;2022-10-17T06:23:39;9.48;;;4.65;;
42140;SDS011;27809;51.864;5.646;2022-10-17T06:26:05;20.63;;;5.28;;
42140;SDS011;27809;51.864;5.646;2022-10-17T06:28:31;8.18;;;4.68;;
42140;SDS011;27809;51.864;5.646;2022-10-17T06:30:57;13.60;;;4.65;;
42140;SDS011;27809;51.864;5.646;2022-10-17T06:33:23;15.35;;;5.63;;
42140;SDS011;27809;51.864;5.646;2022-10-17T06:35:52;12.00;;;6.22;;
42140;SDS011;27809;51.864;5.646;2022-10-17T06:38:18;9.85;;;4.93;;
42140;SDS011;27809;51.864;5.646;2022-10-17T06:40:44;9.18;;;4.50;;
42140;SDS011;27809;51.864;5.646;2022-10-17T06:43:09;12.90;;;5.60;;
42140;SDS011;27809;51.864;5.646;2022-10-17T06:45:37;12.25;;;4.60;;
42140;SDS011;27809;51.864;5.646;2022-10-17T06:48:03;8.88;;;5.15;;
42140;SDS011;27809;51.864;5.646;2022-10-17T06:50:29;9.20;;;4.28;;
42140;SDS011;27809;51.864;5.646;2022-10-17T06:52:54;7.63;;;4.53;;
42140;SDS011;27809;51.864;5.646;2022-10-17T06:55:20;9.73;;;4.13;;
42140;SDS011;27809;51.864;5.646;2022-10-17T06:57:45;12.07;;;4.78;;
42140;SDS011;27809;51.864;5.646;2022-10-17T07:00:11;5.40;;;4.35;;
42140;SDS011;27809;51.864;5.646;2022-10-17T07:02:37;8.82;;;3.60;;
42140;SDS011;27809;51.864;5.646;2022-10-17T07:05:02;26.02;;;5.15;;
42140;SDS011;27809;51.864;5.646;2022-10-17T07:07:31;8.10;;;4.47;;
42140;SDS011;27809;51.864;5.646;2022-10-17T07:09:57;8.40;;;3.65;;
42140;SDS011;27809;51.864;5.646;2022-10-17T07:12:23;11.63;;;5.20;;
42140;SDS011;27809;51.864;5.646;2022-10-17T07:14:48;9.15;;;5.07;;
42140;SDS011;27809;51.864;5.646;2022-10-17T07:17:15;7.88;;;4.13;;
42140;SDS011;27809;51.864;5.646;2022-10-17T07:19:41;10.27;;;4.18;;
42140;SDS011;27809;51.864;5.646;2022-10-17T07:22:07;10.48;;;4.72;;
42140;SDS011;27809;51.864;5.646;2022-10-17T07:24:33;12.65;;;4.93;;
42140;SDS011;27809;51.864;5.646;2022-10-17T07:26:59;13.40;;;4.80;;
42140;SDS011;27809;51.864;5.646;2022-10-17T07:29:24;12.15;;;4.38;;
42140;SDS011;27809;51.864;5.646;2022-10-17T07:31:50;6.10;;;4.40;;
42140;SDS011;27809;51.864;5.646;2022-10-17T07:34:16;15.50;;;5.28;;
42140;SDS011;27809;51.864;5.646;2022-10-17T07:36:42;10.07;;;4.40;;
42140;SDS011;27809;51.864;5.646;2022-10-17T07:39:08;10.90;;;5.22;;
42140;SDS011;27809;51.864;5.646;2022-10-17T07:41:33;16.02;;;4.80;;
42140;SDS011;27809;51.864;5.646;2022-10-17T07:43:59;11.93;;;4.47;;
42140;SDS011;27809;51.864;5.646;2022-10-17T07:46:24;8.65;;;4.70;;
42140;SDS011;27809;51.864;5.646;2022-10-17T07:48:50;5.25;;;3.58;;
42140;SDS011;27809;51.864;5.646;2022-10-17T07:51:15;8.20;;;3.58;;
42140;SDS011;27809;51.864;5.646;2022-10-17T07:53:42;8.70;;;2.35;;
42140;SDS011;27809;51.864;5.646;2022-10-17T07:56:08;4.93;;;1.90;;
42140;SDS011;27809;51.864;5.646;2022-10-17T07:58:35;7.28;;;2.25;;
42140;SDS011;27809;51.864;5.646;2022-10-17T08:01:02;5.88;;;3.28;;
42140;SDS011;27809;51.864;5.646;2022-10-17T08:03:32;6.20;;;3.33;;
42140;SDS011;27809;51.864;5.646;2022-10-17T08:06:01;6.70;;;2.83;;
42140;SDS011;27809;51.864;5.646;2022-10-17T08:08:27;12.75;;;2.60;;
42140;SDS011;27809;51.864;5.646;2022-10-17T08:10:54;20.60;;;4.63;;
42140;SDS011;27809;51.864;5.646;2022-10-17T08:13:21;8.75;;;3.42;;
42140;SDS011;27809;51.864;5.646;2022-10-17T08:15:47;10.23;;;4.57;;
42140;SDS011;27809;51.864;5.646;2022-10-17T08:18:13;7.40;;;3.65;;
42140;SDS011;27809;51.864;5.646;2022-10-17T08:20:40;15.77;;;4.60;;
42140;SDS011;27809;51.864;5.646;2022-10-17T08:23:06;6.78;;;1.85;;
42140;SDS011;27809;51.864;5.646;2022-10-17T08:25:31;9.55;;;3.90;;
42140;SDS011;27809;51.864;5.646;2022-10-17T08:27:57;3.60;;;2.50;;
42140;SDS011;27809;51.864;5.646;2022-10-17T08:30:23;5.63;;;2.03;;
42140;SDS011;27809;51.864;5.646;2022-10-17T08:32:48;9.20;;;3.03;;
42140;SDS011;27809;51.864;5.646;2022-10-17T08:35:14;10.90;;;3.60;;
42140;SDS011;27809;51.864;5.646;2022-10-17T08:37:40;7.80;;;2.05;;
42140;SDS011;27809;51.864;5.646;2022-10-17T08:40:05;8.32;;;4.10;;
42140;SDS011;27809;51.864;5.646;2022-10-17T08:45:27;7.85;;;3.88;;
42140;SDS011;27809;51.864;5.646;2022-10-17T08:48:19;12.48;;;4.07;;
42140;SDS011;27809;51.864;5.646;2022-10-17T08:58:38;15.13;;;5.13;;
42140;SDS011;27809;51.864;5.646;2022-10-17T09:06:43;14.07;;;4.60;;
42140;SDS011;27809;51.864;5.646;2022-10-17T09:09:27;7.70;;;5.13;;
42140;SDS011;27809;51.864;5.646;2022-10-17T09:15:56;9.32;;;4.75;;
42140;SDS011;27809;51.864;5.646;2022-10-17T09:18:29;10.63;;;4.53;;
42140;SDS011;27809;51.864;5.646;2022-10-17T09:23:53;14.32;;;5.05;;
42140;SDS011;27809;51.864;5.646;2022-10-17T09:26:21;7.13;;;4.07;;
42140;SDS011;27809;51.864;5.646;2022-10-17T09:28:51;8.45;;;3.38;;
42140;SDS011;27809;51.864;5.646;2022-10-17T09:31:24;10.37;;;4.77;;
42140;SDS011;27809;51.864;5.646;2022-10-17T09:33:53;11.20;;;4.38;;
42140;SDS011;27809;51.864;5.646;2022-10-17T09:36:28;12.30;;;3.38;;
42140;SDS011;27809;51.864;5.646;2022-10-17T09:38:56;12.40;;;3.92;;
42140;SDS011;27809;51.864;5.646;2022-10-17T09:44:29;11.07;;;5.03;;
42140;SDS011;27809;51.864;5.646;2022-10-17T09:47:05;11.82;;;4.80;;
42140;SDS011;27809;51.864;5.646;2022-10-17T09:49:43;10.05;;;4.35;;
42140;SDS011;27809;51.864;5.646;2022-10-17T09:52:13;14.07;;;4.90;;
42140;SDS011;27809;51.864;5.646;2022-10-17T09:54:49;7.90;;;3.90;;
42140;SDS011;27809;51.864;5.646;2022-10-17T09:57:27;6.68;;;3.63;;
42140;SDS011;27809;51.864;5.646;2022-10-17T10:00:19;5.68;;;4.05;;
42140;SDS011;27809;51.864;5.646;2022-10-17T10:03:06;9.93;;;3.65;;
42140;SDS011;27809;51.864;5.646;2022-10-17T10:05:32;7.35;;;3.40;;
42140;SDS011;27809;51.864;5.646;2022-10-17T10:08:02;7.95;;;3.50;;
42140;SDS011;27809;51.864;5.646;2022-10-17T10:10:47;8.20;;;3.83;;
42140;SDS011;27809;51.864;5.646;2022-10-17T10:13:22;8.57;;;4.40;;
42140;SDS011;27809;51.864;5.646;2022-10-17T10:15:51;10.38;;;4.40;;
42140;SDS011;27809;51.864;5.646;2022-10-17T10:18:35;9.88;;;3.92;;
42140;SDS011;27809;51.864;5.646;2022-10-17T10:23:29;5.78;;;3.63;;
42140;SDS011;27809;51.864;5.646;2022-10-17T10:25:58;7.30;;;2.50;;
42140;SDS011;27809;51.864;5.646;2022-10-17T10:28:27;6.38;;;2.72;;
42140;SDS011;27809;51.864;5.646;2022-10-17T10:30:56;5.97;;;2.75;;
42140;SDS011;27809;51.864;5.646;2022-10-17T10:33:24;8.65;;;2.28;;
42140;SDS011;27809;51.864;5.646;2022-10-17T10:36:05;6.95;;;2.83;;
42140;SDS011;27809;51.864;5.646;2022-10-17T10:38:32;4.78;;;2.22;;
42140;SDS011;27809;51.864;5.646;2022-10-17T10:41:02;5.03;;;2.55;;
42140;SDS011;27809;51.864;5.646;2022-10-17T10:46:19;5.05;;;2.45;;
42140;SDS011;27809;51.864;5.646;2022-10-17T10:49:03;6.47;;;3.45;;
42140;SDS011;27809;51.864;5.646;2022-10-17T10:51:49;6.68;;;3.25;;
42140;SDS011;27809;51.864;5.646;2022-10-17T10:54:16;8.02;;;2.85;;
42140;SDS011;27809;51.864;5.646;2022-10-17T10:56:49;6.18;;;3.25;;
42140;SDS011;27809;51.864;5.646;2022-10-17T11:05:12;5.03;;;3.15;;
42140;SDS011;27809;51.864;5.646;2022-10-17T11:07:36;5.60;;;3.47;;
42140;SDS011;27809;51.864;5.646;2022-10-17T11:10:21;4.60;;;2.80;;
42140;SDS011;27809;51.864;5.646;2022-10-17T11:13:22;12.35;;;4.68;;
42140;SDS011;27809;51.864;5.646;2022-10-17T11:16:01;4.38;;;3.42;;
42140;SDS011;27809;51.864;5.646;2022-10-17T11:18:41;7.28;;;3.83;;
42140;SDS011;27809;51.864;5.646;2022-10-17T11:21:14;12.73;;;4.97;;
42140;SDS011;27809;51.864;5.646;2022-10-17T11:23:45;6.05;;;3.63;;
42140;SDS011;27809;51.864;5.646;2022-10-17T11:26:30;10.25;;;4.45;;
42140;SDS011;27809;51.864;5.646;2022-10-17T11:29:01;8.40;;;4.07;;
42140;SDS011;27809;51.864;5.646;2022-10-17T11:31:29;10.93;;;4.35;;
42140;SDS011;27809;51.864;5.646;2022-10-17T11:34:04;11.88;;;5.18;;
42140;SDS011;27809;51.864;5.646;2022-10-17T11:36:34;9.05;;;4.13;;
42140;SDS011;27809;51.864;5.646;2022-10-17T11:39:10;10.65;;;5.70;;
42140;SDS011;27809;51.864;5.646;2022-10-17T11:41:49;10.88;;;6.18;;
42140;SDS011;27809;51.864;5.646;2022-10-17T11:44:22;13.65;;;6.03;;
42140;SDS011;27809;51.864;5.646;2022-10-17T11:47:02;12.02;;;6.18;;
42140;SDS011;27809;51.864;5.646;2022-10-17T11:49:39;11.52;;;5.95;;
42140;SDS011;27809;51.864;5.646;2022-10-17T11:52:34;9.77;;;5.93;;
42140;SDS011;27809;51.864;5.646;2022-10-17T11:55:09;9.20;;;5.07;;
42140;SDS011;27809;51.864;5.646;2022-10-17T11:57:57;9.38;;;4.78;;
42140;SDS011;27809;51.864;5.646;2022-10-17T12:03:18;8.70;;;4.63;;
42140;SDS011;27809;51.864;5.646;2022-10-17T12:17:01;7.80;;;4.45;;
42140;SDS011;27809;51.864;5.646;2022-10-17T12:19:32;10.00;;;4.30;;
42140;SDS011;27809;51.864;5.646;2022-10-17T12:22:01;6.38;;;4.00;;
42140;SDS011;27809;51.864;5.646;2022-10-17T12:24:52;7.53;;;4.30;;
42140;SDS011;27809;51.864;5.646;2022-10-17T12:29:58;6.78;;;4.50;;
42140;SDS011;27809;51.864;5.646;2022-10-17T12:32:25;10.20;;;4.53;;
42140;SDS011;27809;51.864;5.646;2022-10-17T12:34:51;7.45;;;4.65;;
42140;SDS011;27809;51.864;5.646;2022-10-17T12:42:59;6.40;;;4.68;;
42140;SDS011;27809;51.864;5.646;2022-10-17T12:45:49;10.90;;;5.28;;
42140;SDS011;27809;51.864;5.646;2022-10-17T12:56:07;7.90;;;5.53;;
42140;SDS011;27809;51.864;5.646;2022-10-17T12:58:33;12.55;;;4.53;;
42140;SDS011;27809;51.864;5.646;2022-10-17T13:00:59;5.68;;;4.30;;
42140;SDS011;27809;51.864;5.646;2022-10-17T13:03:32;11.10;;;5.07;;
42140;SDS011;27809;51.864;5.646;2022-10-17T13:06:05;7.85;;;5.05;;
42140;SDS011;27809;51.864;5.646;2022-10-17T13:08:38;9.32;;;5.90;;
42140;SDS011;27809;51.864;5.646;2022-10-17T13:11:07;8.57;;;5.05;;
42140;SDS011;27809;51.864;5.646;2022-10-17T13:13:47;10.38;;;5.45;;
42140;SDS011;27809;51.864;5.646;2022-10-17T13:16:31;7.68;;;3.85;;
42140;SDS011;27809;51.864;5.646;2022-10-17T13:19:02;6.95;;;4.50;;
42140;SDS011;27809;51.864;5.646;2022-10-17T13:21:36;7.50;;;5.32;;
42140;SDS011;27809;51.864;5.646;2022-10-17T13:24:18;9.57;;;5.18;;
42140;SDS011;27809;51.864;5.646;2022-10-17T13:27:04;16.35;;;5.78;;
42140;SDS011;27809;51.864;5.646;2022-10-17T13:29:45;11.35;;;5.40;;
42140;SDS011;27809;51.864;5.646;2022-10-17T13:32:10;6.95;;;4.60;;
42140;SDS011;27809;51.864;5.646;2022-10-17T13:34:36;12.00;;;5.63;;
42140;SDS011;27809;51.864;5.646;2022-10-17T13:37:03;11.43;;;5.82;;
42140;SDS011;27809;51.864;5.646;2022-10-17T13:39:34;12.38;;;5.68;;
42140;SDS011;27809;51.864;5.646;2022-10-17T13:42:04;8.90;;;6.38;;
42140;SDS011;27809;51.864;5.646;2022-10-17T13:44:32;9.25;;;7.32;;
42140;SDS011;27809;51.864;5.646;2022-10-17T13:46:59;9.13;;;7.18;;
42140;SDS011;27809;51.864;5.646;2022-10-17T13:49:28;11.50;;;7.28;;
42140;SDS011;27809;51.864;5.646;2022-10-17T13:52:01;12.82;;;8.07;;
42140;SDS011;27809;51.864;5.646;2022-10-17T13:54:36;10.38;;;6.38;;
42140;SDS011;27809;51.864;5.646;2022-10-17T13:57:05;13.13;;;6.53;;
42140;SDS011;27809;51.864;5.646;2022-10-17T13:59:42;11.30;;;6.93;;
42140;SDS011;27809;51.864;5.646;2022-10-17T14:02:24;9.05;;;5.97;;
42140;SDS011;27809;51.864;5.646;2022-10-17T14:10:02;11.45;;;7.57;;
42140;SDS011;27809;51.864;5.646;2022-10-17T14:12:30;12.48;;;7.97;;
42140;SDS011;27809;51.864;5.646;2022-10-17T14:14:57;11.85;;;8.18;;
42140;SDS011;27809;51.864;5.646;2022-10-17T14:17:23;13.40;;;7.40;;
42140;SDS011;27809;51.864;5.646;2022-10-17T14:19:52;14.50;;;8.32;;
42140;SDS011;27809;51.864;5.646;2022-10-17T14:22:24;14.95;;;7.88;;
42140;SDS011;27809;51.864;5.646;2022-10-17T14:24:52;14.52;;;7.75;;
42140;SDS011;27809;51.864;5.646;2022-10-17T14:30:04;16.63;;;8.57;;
42140;SDS011;27809;51.864;5.646;2022-10-17T14:34:59;12.52;;;8.40;;
42140;SDS011;27809;51.864;5.646;2022-10-17T14:37:38;12.52;;;8.68;;
42140;SDS011;27809;51.864;5.646;2022-10-17T14:40:16;17.02;;;9.43;;
42140;SDS011;27809;51.864;5.646;2022-10-17T14:42:50;15.98;;;9.73;;
42140;SDS011;27809;51.864;5.646;2022-10-17T14:45:24;16.25;;;8.77;;
42140;SDS011;27809;51.864;5.646;2022-10-17T14:47:52;18.67;;;9.95;;
42140;SDS011;27809;51.864;5.646;2022-10-17T14:50:21;14.70;;;9.57;;
42140;SDS011;27809;51.864;5.646;2022-10-17T14:52:59;29.42;;;12.00;;
42140;SDS011;27809;51.864;5.646;2022-10-17T14:55:30;18.45;;;9.85;;
42140;SDS011;27809;51.864;5.646;2022-10-17T14:57:58;13.88;;;9.93;;
42140;SDS011;27809;51.864;5.646;2022-10-17T15:00:24;13.75;;;8.90;;
42140;SDS011;27809;51.864;5.646;2022-10-17T15:02:50;13.55;;;9.02;;
42140;SDS011;27809;51.864;5.646;2022-10-17T15:05:17;13.65;;;9.07;;
42140;SDS011;27809;51.864;5.646;2022-10-17T15:07:44;15.65;;;8.30;;
42140;SDS011;27809;51.864;5.646;2022-10-17T15:10:30;15.73;;;8.52;;
42140;SDS011;27809;51.864;5.646;2022-10-17T15:13:00;14.60;;;9.23;;
42140;SDS011;27809;51.864;5.646;2022-10-17T15:15:27;17.50;;;10.30;;
42140;SDS011;27809;51.864;5.646;2022-10-17T15:17:53;16.77;;;8.07;;
42140;SDS011;27809;51.864;5.646;2022-10-17T15:20:19;12.10;;;7.85;;
42140;SDS011;27809;51.864;5.646;2022-10-17T15:22:49;16.15;;;10.65;;
42140;SDS011;27809;51.864;5.646;2022-10-17T15:25:16;14.60;;;9.05;;
42140;SDS011;27809;51.864;5.646;2022-10-17T15:27:41;18.67;;;9.32;;
42140;SDS011;27809;51.864;5.646;2022-10-17T15:30:49;15.32;;;9.63;;
42140;SDS011;27809;51.864;5.646;2022-10-17T15:32:58;18.13;;;10.40;;
42140;SDS011;27809;51.864;5.646;2022-10-17T15:35:24;14.73;;;10.15;;
42140;SDS011;27809;51.864;5.646;2022-10-17T15:37:51;15.80;;;8.98;;
42140;SDS011;27809;51.864;5.646;2022-10-17T15:40:24;15.63;;;9.13;;
42140;SDS011;27809;51.864;5.646;2022-10-17T15:42:53;13.18;;;8.85;;
42140;SDS011;27809;51.864;5.646;2022-10-17T15:45:20;18.08;;;8.95;;
42140;SDS011;27809;51.864;5.646;2022-10-17T15:47:50;10.35;;;8.15;;
42140;SDS011;27809;51.864;5.646;2022-10-17T15:50:17;22.63;;;9.38;;
42140;SDS011;27809;51.864;5.646;2022-10-17T15:52:43;17.58;;;10.48;;
42140;SDS011;27809;51.864;5.646;2022-10-17T15:55:11;18.17;;;9.50;;
42140;SDS011;27809;51.864;5.646;2022-10-17T15:57:38;14.98;;;8.57;;
42140;SDS011;27809;51.864;5.646;2022-10-17T16:00:07;10.52;;;7.50;;
42140;SDS011;27809;51.864;5.646;2022-10-17T16:02:40;15.13;;;8.15;;
42140;SDS011;27809;51.864;5.646;2022-10-17T16:05:14;12.75;;;8.13;;
42140;SDS011;27809;51.864;5.646;2022-10-17T16:07:49;13.20;;;7.80;;
42140;SDS011;27809;51.864;5.646;2022-10-17T16:10:18;16.30;;;8.20;;
42140;SDS011;27809;51.864;5.646;2022-10-17T16:12:45;17.17;;;7.03;;
42140;SDS011;27809;51.864;5.646;2022-10-17T16:15:14;14.07;;;7.93;;
42140;SDS011;27809;51.864;5.646;2022-10-17T16:17:46;11.60;;;6.20;;
42140;SDS011;27809;51.864;5.646;2022-10-17T16:20:12;21.98;;;8.57;;
42140;SDS011;27809;51.864;5.646;2022-10-17T16:22:38;20.90;;;8.23;;
42140;SDS011;27809;51.864;5.646;2022-10-17T16:25:09;38.15;;;24.17;;
42140;SDS011;27809;51.864;5.646;2022-10-17T16:27:48;13.73;;;6.53;;
42140;SDS011;27809;51.864;5.646;2022-10-17T16:30:14;15.85;;;7.75;;
42140;SDS011;27809;51.864;5.646;2022-10-17T16:32:41;15.90;;;7.35;;
42140;SDS011;27809;51.864;5.646;2022-10-17T16:35:07;16.48;;;7.03;;